• Join FlightAware (Why Join?)
  • Login
  • US Flag 
01:21AM EST


 

Airport Tracker/Info


-or-


 

Live Flight TrackerFlight Track Log ✈ EGF3676 ✈ 29-Apr-2013 ✈ KDEN - KLAX

Flight Track Log - Related Links

Times and Time Zones

All times are in EDT time to prevent confusion due to time zone crossing. See the EGF3676 flight status page for this flight to view local times or setup timezone preferences in your user account.

Time Position Orientation Groundspeed Altitude Reporting Facility
EDT Latitude Longitude Course Direction KTS MPH feet Rate Location/Type
05:37PM 39.8333 -104.7667 248° West 163 188 7,100  Level Denver TRACON
05:38PM 39.7624 -104.9320 250° West  Level FlightAware Approximate
05:38PM 39.8167 -104.8333 252° West 222 255 8,700  Level Denver TRACON
05:39PM 39.7223 -105.0667 247° West  Level FlightAware Approximate
05:39PM 39.8000 -104.9000 252° West 270 311 10,100  Level Denver TRACON
05:40PM 39.6781 -105.1992 247° West  Level FlightAware Approximate
05:40PM 39.7667 -105.0000 247° West 305 351 12,000  Level Denver TRACON
05:41PM 39.6395 -105.3343 248° West  Level FlightAware Approximate
05:41PM 39.7275 -105.1336 249° West 330 380 14,400  Level Denver Center
05:42PM 39.5978 -105.4698 248° West  Level FlightAware Approximate
05:42PM 39.6850 -105.2508 245° Southwest 356 410 16,000  Level Denver Center
05:43PM 39.6400 -105.3758 245° Southwest 378 435 18,300 2,280 Climbing Denver Center
05:44PM 39.5917 -105.5108 245° Southwest 386 444 20,800 2,280 Climbing Denver Center
05:45PM 39.5469 -105.6325 245° Southwest 380 437 23,100 1,980 Climbing Denver Center
05:46PM 39.5117 -105.7569 250° West 364 419 24,900 1,200 Climbing Denver Center
05:47PM 39.4775 -105.8886 251° West 379 436 25,700 840 Climbing Denver Center
05:48PM 39.4392 -106.0300 251° West 408 470 26,700 1,080 Climbing Denver Center
05:49PM 39.3922 -106.1936 250° West 423 487 28,000 1,200 Climbing Denver Center
05:50PM 39.3531 -106.3333 250° West 432 497 29,200 1,200 Climbing Denver Center
05:51PM 39.3061 -106.4947 249° West 430 495 30,500 1,200 Climbing Denver Center
05:52PM 39.2661 -106.6361 250° West 435 501 31,700 1,080 Climbing Denver Center
05:53PM 39.1992 -106.7869 240° Southwest 443 510 32,800 960 Climbing Denver Center
05:54PM 39.1247 -106.9064 231° Southwest 446 513 33,700 900 Climbing Denver Center
05:55PM 39.0503 -107.0242 231° Southwest 443 510 34,700 1,020 Climbing Denver Center
05:56PM 38.9622 -107.1633 231° Southwest 446 513 35,800 600 Climbing Denver Center
05:57PM 38.8875 -107.2822 231° Southwest 448 516 36,000 60 Climbing Denver Center
05:58PM 38.7958 -107.4242 230° Southwest 461 531 36,000  Level Denver Center
05:59PM 38.7139 -107.5517 231° Southwest 478 550 36,000  Level Denver Center
06:00PM 38.6192 -107.6972 230° Southwest 477 549 36,000  Level Denver Center
06:01PM 38.5406 -107.8222 231° Southwest 473 544 36,000 60 Level Denver Center
06:02PM 38.4469 -107.9664 230° Southwest 470 541 36,200 420 Climbing Denver Center
06:03PM 38.3653 -108.0914 230° Southwest 475 547 36,900 660 Climbing Denver Center
06:04PM 38.2850 -108.2131 230° Southwest 471 542 37,600 480 Climbing Denver Center
06:06PM 38.1917 -108.3572 231° Southwest 470 541 38,000 180 Climbing Denver Center
06:07PM 38.1106 -108.4800 230° Southwest 473 544 38,000  Level Denver Center
06:08PM 38.0133 -108.6261 230° Southwest 474 545 38,000  Level Denver Center
06:09PM 37.9372 -108.7525 233° Southwest 473 544 38,000  Level Denver Center
06:10PM 37.8747 -108.8869 240° Southwest 467 537 38,000  Level Denver Center
06:11PM 37.8033 -109.0483 241° Southwest 469 540 38,000  Level Denver Center
06:12PM 37.7403 -109.1836 240° Southwest 468 539 38,000  Level Denver Center
06:13PM 37.6681 -109.3450 241° Southwest 474 545 38,000  Level Denver Center
06:14PM 37.6053 -109.4803 240° Southwest 468 539 38,000  Level Denver Center
06:15PM 37.5328 -109.6403 240° Southwest 471 542 38,000  Level Denver Center
06:16PM 37.4694 -109.7764 240° Southwest 470 541 38,000  Level Denver Center
06:17PM 37.3964 -109.9347 240° Southwest 470 541 38,000  Level Denver Center
06:18PM 37.3342 -110.0700 240° Southwest 469 540 38,000  Level Denver Center
06:19PM 37.2683 -110.2103 240° Southwest 469 540 38,000  Level Denver Center
06:20PM 37.2006 -110.3517 239° Southwest 472 543 38,000  Level Denver Center
06:21PM 37.1347 -110.4917 239° Southwest 469 540 38,000  Level Denver Center
06:22PM 37.0550 -110.6611 240° Southwest 470 541 38,000  Level Denver Center
06:23PM 36.9875 -110.8028 239° Southwest 473 544 38,000  Level Denver Center
06:24PM 36.9203 -110.9422 239° Southwest 470 541 38,100  Climbing Denver Center
06:25PM 36.8522 -111.0836 239° Southwest 474 545 38,000 -60 Descending Denver Center
06:26PM 36.7842 -111.2239 239° Southwest 473 544 38,000  Level Denver Center
06:27PM 36.7167 -111.3625 239° Southwest 469 540 38,000  Level Denver Center
06:28PM 36.6539 -111.5019 241° Southwest 466 536 38,000  Level Denver Center
06:29PM 36.5825 -111.6728 243° Southwest 463 533 38,000  Level Denver Center
06:30PM 36.5231 -111.8153 243° Southwest 463 533 38,000  Level Denver Center
06:31PM 36.4631 -111.9572 242° Southwest 463 533 38,000  Level Denver Center
06:32PM 36.4042 -112.0989 243° Southwest 462 532 38,000  Level Denver Center
06:33PM 36.3431 -112.2403 242° Southwest 464 534 38,000  Level Denver Center
06:35PM 36.2714 -112.4086 242° Southwest 460 529 38,000  Level Los Angeles Center
06:36PM 36.1967 -112.5794 242° Southwest 466 536 38,000  Level Los Angeles Center
06:37PM 36.1353 -112.7231 242° Southwest 470 541 38,000  Level Los Angeles Center
06:38PM 36.0731 -112.8644 241° Southwest 469 540 38,000  Level Los Angeles Center
06:39PM 36.0125 -113.0053 242° Southwest 466 536 38,000  Level Los Angeles Center
06:40PM 35.9547 -113.1375 242° Southwest 468 539 38,000  Level Los Angeles Center
06:41PM 35.8814 -113.3044 242° Southwest 467 537 38,000  Level Los Angeles Center
06:42PM 35.8203 -113.4428 241° Southwest 465 535 38,000  Level Los Angeles Center
06:43PM 35.7594 -113.5822 242° Southwest 469 540 38,000  Level Los Angeles Center
06:44PM 35.6975 -113.7178 241° Southwest 462 532 38,000  Level Los Angeles Center
06:45PM 35.6242 -113.8858 242° Southwest 467 537 38,000  Level Los Angeles Center
06:46PM 35.5617 -114.0225 241° Southwest 464 534 38,000  Level Los Angeles Center
06:47PM 35.4992 -114.1614 241° Southwest 467 537 38,000  Level Los Angeles Center
06:48PM 35.4336 -114.3069 241° Southwest 464 534 38,000  Level Los Angeles Center
06:49PM 35.3703 -114.4461 241° Southwest 467 537 38,000  Level Los Angeles Center
06:50PM 35.3061 -114.5842 240° Southwest 465 535 38,000  Level Los Angeles Center
06:51PM 35.2411 -114.7250 241° Southwest 471 542 38,000  Level Los Angeles Center
06:52PM 35.1656 -114.8908 241° Southwest 467 537 38,000  Level Los Angeles Center
06:53PM 35.1019 -115.0294 241° Southwest 466 536 38,000  Level Los Angeles Center
06:54PM 35.0381 -115.1664 240° Southwest 465 535 38,000  Level Los Angeles Center
06:55PM 34.9758 -115.2997 240° Southwest 466 536 38,000  Level Los Angeles Center
06:56PM 34.9097 -115.4411 240° Southwest 465 535 38,000  Level Los Angeles Center
06:57PM 34.8489 -115.5717 240° Southwest 462 532 38,000  Level Los Angeles Center
06:58PM 34.7708 -115.7358 240° Southwest 465 535 38,000  Level Los Angeles Center
06:59PM 34.7072 -115.8714 240° Southwest 463 533 38,000 -360 Level Los Angeles Center
07:00PM 34.6422 -116.0069 240° Southwest 464 534 37,300 -1,560 Descending Los Angeles Center
07:01PM 34.5767 -116.1439 240° Southwest 468 539 34,800 -2,460 Descending Los Angeles Center
07:03PM 34.5106 -116.2822 240° Southwest 473 544 32,300 -2,460 Descending Los Angeles Center
07:04PM 34.4447 -116.4172 239° Southwest 466 536 29,800 -2,340 Descending Los Angeles Center
07:05PM 34.3797 -116.5500 239° Southwest 461 531 27,500 -1,380 Descending Los Angeles Center
07:06PM 34.3081 -116.6978 240° Southwest 429 494 27,000 -1,260 Descending Los Angeles Center
07:07PM 34.2508 -116.8164 240° Southwest 411 473 25,000 -2,580 Descending Los Angeles Center
07:08PM 34.1908 -116.9367 239° Southwest 415 478 21,700 -2,940 Descending Los Angeles Center
07:09PM 34.1344 -117.0539 240° Southwest 407 468 19,000 -1,620 Descending Los Angeles Center
07:09PM 34.1000 -117.1333 242° Southwest 366 421 19,000 -1,200 Level Southern California TRACON
07:10PM 34.0500 -117.2500 243° Southwest 362 417 17,100 -1,920 Descending Southern California TRACON
07:11PM 34.0333 -117.3667 260° West 339 390 15,200 -1,860 Descending Southern California TRACON
07:12PM 34.0333 -117.4833 270° West 331 381 13,300 -1,680 Descending Southern California TRACON
07:13PM 34.0167 -117.6000 260° West 398 458 11,700 -1,380 Descending Southern California TRACON
07:14PM 34.0000 -117.7000 259° West 273 314 10,600 -1,200 Descending Southern California TRACON
07:15PM 34.0000 -117.7833 270° West 276 318 9,300 -1,200 Descending Southern California TRACON
07:16PM 33.9833 -117.8667 256° West 268 308 8,300 -1,140 Descending Southern California TRACON
07:17PM 33.9833 -117.9500 270° West 262 302 7,200 -1,380 Descending Southern California TRACON
07:18PM 33.9667 -118.0500 259° West 249 287 5,500 -1,440 Descending Southern California TRACON
07:19PM 33.9667 -118.1167 270° West 234 269 4,300 -1,140 Descending Southern California TRACON
07:20PM 33.9600 -118.1631 260° West 238 274 3,700 -1,020 Descending Los Angeles Center